Time;durP1;ratioP1;P1;durP2;ratioP2;P2;SDS_P1;SDS_P2;PMS_P1;PMS_P2;Temp;Humidity;BMP_temperature;BMP_pressure;BME280_temperature;BME280_humidity;BME280_pressure;Samples;Min_cycle;Max_cycle;Signal;HPM_P1;HPM_P2
2021/03/31 00:01:07;;;;;;;51.53;21.60;;;;;;;6.02;75.79;100035.05;2199421;80;21280;-72
2021/03/31 00:04:09;;;;;;;40.95;19.90;;;;;;;6.00;76.09;100038.16;2198267;80;21284;-71
2021/03/31 00:07:11;;;;;;;39.88;18.30;;;;;;;5.98;75.91;100035.59;2200490;79;21317;-72
2021/03/31 00:10:13;;;;;;;48.23;23.60;;;;;;;5.97;76.01;100042.11;2191237;80;21281;-72
2021/03/31 00:13:15;;;;;;;46.45;23.22;;;;;;;5.92;76.11;100040.91;2192360;80;21299;-72
2021/03/31 00:16:17;;;;;;;50.43;26.05;;;;;;;5.89;76.07;100039.23;2190092;80;21725;-72
2021/03/31 00:19:19;;;;;;;32.90;15.13;;;;;;;5.89;76.38;100039.23;2190725;80;21842;-71
2021/03/31 00:22:21;;;;;;;36.33;17.48;;;;;;;5.85;76.04;100040.18;2191326;79;21748;-72
2021/03/31 00:25:23;;;;;;;63.00;30.37;;;;;;;5.76;75.96;100042.12;2201937;80;21163;-71
2021/03/31 00:28:26;;;;;;;49.13;25.40;;;;;;;5.71;76.86;100037.88;2200152;80;21299;-72
2021/03/31 00:31:28;;;;;;;37.17;16.75;;;;;;;5.77;76.60;100046.00;2204664;79;21299;-72
2021/03/31 00:34:30;;;;;;;33.73;15.68;;;;;;;5.85;76.12;100036.73;2208967;80;21756;-72
2021/03/31 00:37:32;;;;;;;33.98;15.32;;;;;;;5.86;75.84;100039.30;2192241;80;21720;-71
2021/03/31 00:40:34;;;;;;;34.67;15.10;;;;;;;5.80;75.57;100038.57;2189976;80;21296;-72
2021/03/31 00:43:36;;;;;;;32.55;14.93;;;;;;;5.71;75.49;100034.42;2188591;80;21299;-72
2021/03/31 00:46:38;;;;;;;34.73;14.58;;;;;;;5.62;75.88;100034.18;2196752;80;21289;-72
2021/03/31 00:49:40;;;;;;;33.75;15.53;;;;;;;5.67;76.20;100030.17;2196046;80;21566;-72
2021/03/31 00:52:42;;;;;;;34.48;17.02;;;;;;;5.60;75.85;100029.43;2189062;80;21304;-72
2021/03/31 00:55:44;;;;;;;34.18;18.25;;;;;;;5.55;75.95;100026.09;2201668;81;21301;-72
2021/03/31 00:58:46;;;;;;;33.02;16.23;;;;;;;5.51;75.99;100025.73;2166288;80;21283;-73
2021/03/31 01:01:48;;;;;;;38.28;17.77;;;;;;;5.49;76.28;100023.17;2203826;80;21708;-72
2021/03/31 01:04:50;;;;;;;36.85;18.52;;;;;;;5.50;76.52;100026.62;2192237;80;21747;-73
2021/03/31 01:07:52;;;;;;;35.88;18.00;;;;;;;5.52;76.59;100016.59;2190811;79;21795;-73
2021/03/31 01:10:54;;;;;;;38.15;17.80;;;;;;;5.47;76.34;100014.97;2191191;80;21284;-72
2021/03/31 01:13:56;;;;;;;36.30;17.35;;;;;;;5.47;76.28;100019.72;2198485;80;21272;-73
2021/03/31 01:16:58;;;;;;;39.38;18.45;;;;;;;5.41;76.21;100017.26;2191928;80;21304;-73
2021/03/31 01:20:00;;;;;;;42.60;20.90;;;;;;;5.35;76.40;100021.30;2191612;80;21291;-72
2021/03/31 01:23:02;;;;;;;41.37;20.60;;;;;;;5.37;76.41;100020.38;2190847;80;21292;-72
2021/03/31 01:26:04;;;;;;;44.88;23.35;;;;;;;5.36;76.33;100016.52;2200272;80;21287;-72
2021/03/31 01:29:06;;;;;;;72.22;36.17;;;;;;;5.35;76.28;100014.80;2194155;81;21304;-72
2021/03/31 01:32:08;;;;;;;45.00;21.93;;;;;;;5.32;76.43;100009.66;2186908;80;21287;-71
2021/03/31 01:35:10;;;;;;;42.73;22.10;;;;;;;5.30;76.56;100011.42;2191101;81;21296;-72
2021/03/31 01:38:12;;;;;;;51.85;26.05;;;;;;;5.28;76.65;100002.80;2174687;80;21292;-72
2021/03/31 01:41:14;;;;;;;61.23;31.27;;;;;;;5.26;76.87;100009.34;2170901;80;21315;-72
2021/03/31 01:44:16;;;;;;;54.05;25.45;;;;;;;5.34;76.82;100011.77;2178743;80;21724;-72
2021/03/31 01:47:18;;;;;;;50.28;23.50;;;;;;;5.34;76.74;100011.34;2186680;80;21372;-72
2021/03/31 01:50:20;;;;;;;56.10;26.02;;;;;;;5.35;76.59;100008.29;2198660;80;21759;-71
2021/03/31 01:53:22;;;;;;;62.50;28.47;;;;;;;5.31;76.91;100006.64;2195314;80;21716;-72
2021/03/31 01:56:24;;;;;;;52.38;24.82;;;;;;;5.28;77.06;100008.00;2194935;80;21299;-72
2021/03/31 01:59:26;;;;;;;53.02;24.60;;;;;;;5.26;77.01;99991.55;2203908;80;21716;-72
2021/03/31 02:02:28;;;;;;;50.90;23.55;;;;;;;5.22;76.83;99988.17;2194900;80;21161;-72
2021/03/31 02:05:30;;;;;;;48.92;24.00;;;;;;;5.17;76.85;99996.50;2184350;80;21276;-72
2021/03/31 02:08:32;;;;;;;105.72;40.48;;;;;;;5.15;77.13;99990.03;2194716;80;21284;-71
2021/03/31 02:11:34;;;;;;;66.25;30.15;;;;;;;5.18;77.05;99986.52;2192778;80;21729;-72
2021/03/31 02:14:36;;;;;;;97.90;37.90;;;;;;;5.17;76.81;99983.49;2193370;80;21764;-73
2021/03/31 02:17:38;;;;;;;113.92;41.28;;;;;;;5.13;76.81;99981.41;2190637;80;21724;-72
2021/03/31 02:20:40;;;;;;;103.02;39.27;;;;;;;5.07;76.78;99981.55;2198830;80;21768;-73
2021/03/31 02:23:42;;;;;;;;;;;;;;;5.01;76.64;99975.14;2198447;80;21732;-71
2021/03/31 02:26:44;;;;;;;55.35;26.07;;;;;;;4.97;76.77;99973.06;2196575;80;20525;-72
2021/03/31 02:29:46;;;;;;;103.97;41.55;;;;;;;4.90;76.74;99971.47;2194617;80;21312;-72
2021/03/31 02:32:48;;;;;;;80.72;33.02;;;;;;;4.85;76.90;99972.84;2203968;79;21284;-72
2021/03/31 02:35:51;;;;;;;64.47;27.82;;;;;;;4.76;77.22;99963.93;2193105;81;21280;-72
2021/03/31 02:38:53;;;;;;;84.50;31.87;;;;;;;4.78;77.27;99968.64;2166208;80;21280;-72
2021/03/31 02:41:55;;;;;;;63.98;29.00;;;;;;;4.72;77.34;99971.36;2188935;80;21154;-72
2021/03/31 02:44:57;;;;;;;83.12;34.50;;;;;;;4.73;77.58;99970.95;2198286;80;21287;-72
2021/03/31 02:47:59;;;;;;;63.25;28.17;;;;;;;4.76;77.51;99975.63;2208947;80;21299;-72
2021/03/31 02:51:01;;;;;;;52.98;25.45;;;;;;;4.79;77.57;99975.56;2172643;81;21287;-71
2021/03/31 02:54:03;;;;;;;56.08;25.27;;;;;;;4.79;77.43;99972.97;2198207;80;21229;-72
2021/03/31 02:57:05;;;;;;;53.00;25.37;;;;;;;4.81;77.38;99972.51;2189278;80;21292;-71
2021/03/31 03:00:07;;;;;;;54.42;26.87;;;;;;;4.84;77.59;99967.67;2189508;80;21302;-72
2021/03/31 03:03:09;;;;;;;55.00;27.93;;;;;;;4.86;77.66;99968.06;2182757;80;21288;-73
2021/03/31 03:06:11;;;;;;;52.85;26.55;;;;;;;4.90;77.77;99964.09;2187681;80;21320;-73
2021/03/31 03:09:13;;;;;;;62.40;29.67;;;;;;;4.91;77.58;99961.46;2189962;80;21182;-72
2021/03/31 03:12:15;;;;;;;53.48;27.52;;;;;;;4.92;77.56;99966.23;2198578;80;21303;-73
2021/03/31 03:15:17;;;;;;;52.23;27.25;;;;;;;4.90;77.49;99959.77;2202535;80;21293;-73
2021/03/31 03:18:20;;;;;;;57.15;28.07;;;;;;;4.89;77.44;99963.25;2201194;79;21739;-71
2021/03/31 03:21:22;;;;;;;58.35;28.40;;;;;;;4.90;77.80;99964.09;2188841;80;21732;-72
2021/03/31 03:24:25;;;;;;;63.80;32.63;;;;;;;4.91;77.63;99965.36;2207738;80;21284;-72
2021/03/31 03:27:27;;;;;;;74.37;33.08;;;;;;;4.89;77.72;99961.11;2195679;80;21317;-73
2021/03/31 03:30:30;;;;;;;63.00;29.15;;;;;;;4.90;77.81;99961.07;2187280;80;21300;-72
2021/03/31 03:33:32;;;;;;;69.37;32.08;;;;;;;4.97;77.71;99959.19;2149385;79;21303;-71
2021/03/31 03:36:34;;;;;;;61.05;30.43;;;;;;;5.04;78.37;99965.98;2189718;80;21622;-72
2021/03/31 03:39:36;;;;;;;61.58;28.92;;;;;;;5.24;78.12;99962.97;2193135;80;21305;-73
2021/03/31 03:42:38;;;;;;;55.83;27.90;;;;;;;5.30;77.32;99970.66;2195342;80;21305;-72
2021/03/31 03:45:40;;;;;;;52.53;26.73;;;;;;;5.30;77.32;99970.66;2193071;80;21712;-73
2021/03/31 03:48:42;;;;;;;50.38;24.90;;;;;;;5.24;77.08;99972.08;2195766;80;21162;-72
2021/03/31 03:51:44;;;;;;;50.92;25.50;;;;;;;5.05;76.93;99978.10;2188842;79;21316;-72
2021/03/31 03:54:46;;;;;;;50.20;25.43;;;;;;;4.91;77.03;99970.56;2189977;80;21308;-73
2021/03/31 03:57:48;;;;;;;52.20;25.82;;;;;;;4.84;77.15;99970.27;2189866;80;21280;-72
2021/03/31 04:00:50;;;;;;;60.17;30.15;;;;;;;4.82;77.54;99968.16;2185184;80;21284;-72
2021/03/31 04:03:52;;;;;;;64.90;33.63;;;;;;;4.86;77.67;99971.96;2189055;80;21296;-72
2021/03/31 04:06:54;;;;;;;58.35;31.42;;;;;;;4.88;78.03;99967.19;2187039;80;21297;-71
2021/03/31 04:09:56;;;;;;;58.02;33.13;;;;;;;4.92;77.76;99966.23;2193243;80;21294;-72
2021/03/31 04:12:58;;;;;;;50.52;27.00;;;;;;;4.90;77.75;99964.97;2188249;80;21272;-72
2021/03/31 04:16:00;;;;;;;66.05;32.98;;;;;;;4.90;78.18;99970.17;2182967;79;21305;-71
2021/03/31 04:19:02;;;;;;;55.00;27.60;;;;;;;4.88;78.24;99964.58;2200347;79;21296;-72
2021/03/31 04:22:04;;;;;;;47.78;26.15;;;;;;;4.90;78.43;99962.37;2191475;79;21308;-72
2021/03/31 04:25:06;;;;;;;48.15;27.25;;;;;;;4.91;78.56;99963.22;2189797;80;21736;-72
2021/03/31 04:28:08;;;;;;;47.40;25.37;;;;;;;4.95;78.74;99968.77;2186670;80;21280;-71
2021/03/31 04:31:10;;;;;;;54.05;26.87;;;;;;;4.96;78.48;99965.30;2190957;80;21280;-72
2021/03/31 04:34:12;;;;;;;52.62;27.02;;;;;;;4.91;78.13;99969.72;2193464;80;21284;-72
2021/03/31 04:37:14;;;;;;;51.65;27.15;;;;;;;4.91;78.21;99958.86;2187237;80;22014;-72
2021/03/31 04:40:16;;;;;;;57.33;30.50;;;;;;;5.00;78.13;99960.45;2206738;79;21351;-72
2021/03/31 04:43:18;;;;;;;57.10;29.92;;;;;;;4.98;78.08;99963.05;2198884;80;21288;-72
2021/03/31 04:46:21;;;;;;;51.35;28.90;;;;;;;5.02;78.34;99963.41;2194914;80;21288;-71
2021/03/31 04:49:23;;;;;;;52.08;28.17;;;;;;;5.09;78.17;99963.31;2187882;80;21292;-71
2021/03/31 04:52:25;;;;;;;49.65;24.23;;;;;;;5.12;78.04;99964.09;2190777;80;21295;-72
2021/03/31 04:55:28;;;;;;;51.75;26.90;;;;;;;5.13;78.00;99964.51;2194078;81;21352;-71
2021/03/31 04:58:33;;;;;;;52.48;27.05;;;;;;;5.18;78.15;99959.20;2202313;81;21291;-72
2021/03/31 05:01:35;;;;;;;77.03;37.95;;;;;;;5.30;78.30;99953.76;2189172;80;21304;-71
2021/03/31 05:04:37;;;;;;;55.58;34.60;;;;;;;5.43;77.78;99946.97;2208263;80;21612;-72
2021/03/31 05:07:39;;;;;;;50.67;29.57;;;;;;;5.55;78.26;99950.16;2209083;80;21740;-72
2021/03/31 05:10:41;;;;;;;42.10;24.12;;;;;;;5.77;78.43;99951.42;2197833;80;21728;-72
2021/03/31 05:13:43;;;;;;;40.40;24.63;;;;;;;5.85;78.62;99954.25;2190031;80;21739;-70
2021/03/31 05:16:45;;;;;;;41.37;25.23;;;;;;;5.87;78.48;99951.61;2196638;79;21316;-70
2021/03/31 05:19:47;;;;;;;43.58;27.30;;;;;;;5.87;78.48;99951.61;2177117;80;21370;-71
2021/03/31 05:22:49;;;;;;;42.48;25.20;;;;;;;5.99;78.85;99953.09;2198425;80;21314;-69
2021/03/31 05:25:51;;;;;;;51.00;29.10;;;;;;;6.09;78.75;99957.64;2200019;80;21296;-72
2021/03/31 05:28:53;;;;;;;54.40;30.17;;;;;;;6.29;78.58;99954.08;2199727;80;21301;-72
2021/03/31 05:31:55;;;;;;;54.27;29.48;;;;;;;6.55;78.65;99959.06;2198888;80;21317;-71
2021/03/31 05:34:57;;;;;;;46.85;27.30;;;;;;;6.73;78.39;99952.52;2190341;80;21304;-70
2021/03/31 05:37:59;;;;;;;47.67;28.38;;;;;;;6.98;78.39;99955.74;2191490;80;21153;-69
2021/03/31 05:41:01;;;;;;;52.48;28.42;;;;;;;7.20;77.97;99954.70;2198249;80;21743;-69
2021/03/31 05:44:03;;;;;;;44.98;26.93;;;;;;;7.37;77.96;99951.14;2177271;80;21289;-70
2021/03/31 05:47:05;;;;;;;43.38;26.10;;;;;;;7.72;77.60;99956.19;2188226;80;21284;-70
2021/03/31 05:50:07;;;;;;;44.05;27.07;;;;;;;7.90;77.09;99962.56;2193497;80;21280;-70
2021/03/31 05:53:09;;;;;;;43.50;26.15;;;;;;;8.05;77.16;99956.86;2198651;79;21284;-70
2021/03/31 05:56:11;;;;;;;44.27;27.60;;;;;;;8.28;77.07;99945.64;2191658;80;21288;-70
2021/03/31 05:59:13;;;;;;;42.80;25.60;;;;;;;8.58;76.92;99945.53;2200240;80;21316;-71
2021/03/31 06:02:15;;;;;;;42.90;26.35;;;;;;;8.90;76.75;99943.52;2206032;80;21304;-71
2021/03/31 06:05:17;;;;;;;46.05;27.82;;;;;;;9.26;76.41;99949.62;2178211;80;21277;-71
2021/03/31 06:08:20;;;;;;;44.35;30.00;;;;;;;9.46;75.98;99949.33;2209515;80;21731;-71
2021/03/31 06:11:22;;;;;;;43.90;27.82;;;;;;;9.68;76.32;99943.66;2201917;80;21923;-71
2021/03/31 06:14:24;;;;;;;43.35;27.22;;;;;;;10.01;75.70;99941.91;2205753;79;21815;-71
2021/03/31 06:17:27;;;;;;;83.42;40.73;;;;;;;10.40;75.73;99945.12;2191953;80;21756;-71
2021/03/31 06:20:29;;;;;;;48.17;27.87;;;;;;;10.40;75.73;99945.12;2185789;80;21323;-69
2021/03/31 06:23:47;;;;;;;45.33;28.55;;;;;;;10.65;75.14;99941.91;2187176;80;21296;-71
2021/03/31 06:26:43;;;;;;;46.30;29.23;;;;;;;10.85;75.15;99936.62;2202457;79;21279;-69
2021/03/31 06:30:02;;;;;;;;;;;;;;;11.12;74.85;99931.06;2204771;80;21181;-68
2021/03/31 06:32:49;;;;;;;46.15;27.45;;;;;;;11.34;74.70;99926.13;2191179;80;20169;-69
2021/03/31 06:35:51;;;;;;;44.58;27.00;;;;;;;11.62;74.52;99930.91;2196285;80;21756;-69
2021/03/31 06:38:53;;;;;;;;;;;;;;;11.85;74.21;99932.46;2215516;80;21736;-70
2021/03/31 06:41:56;;;;;;;46.92;27.37;;;;;;;12.11;73.92;99923.75;2193850;80;20543;-70
2021/03/31 06:45:01;;;;;;;46.08;27.58;;;;;;;12.34;73.59;99915.18;2196457;80;21708;-70
2021/03/31 06:48:04;;;;;;;44.20;26.45;;;;;;;12.57;73.95;99908.28;2186825;80;21744;-71
2021/03/31 06:51:06;;;;;;;47.08;28.07;;;;;;;12.94;73.53;99910.30;2209032;80;21351;-70
2021/03/31 06:54:08;;;;;;;47.50;27.93;;;;;;;13.30;73.24;99912.31;2184150;80;21776;-71
2021/03/31 06:57:10;;;;;;;45.78;28.70;;;;;;;13.55;72.89;99909.66;2201471;79;21323;-70
2021/03/31 07:00:13;;;;;;;47.35;29.40;;;;;;;13.73;72.43;99907.78;2194057;80;21740;-71
2021/03/31 07:03:15;;;;;;;48.85;27.77;;;;;;;13.97;72.38;99905.53;2191553;80;21351;-70
2021/03/31 07:06:19;;;;;;;52.15;30.90;;;;;;;14.14;71.93;99901.91;2191479;80;21304;-70
2021/03/31 07:09:24;;;;;;;48.63;31.02;;;;;;;14.22;71.84;99897.01;2195205;80;21161;-70
2021/03/31 07:12:26;;;;;;;52.23;32.03;;;;;;;14.51;71.69;99890.45;2198137;80;21288;-71
2021/03/31 07:15:30;;;;;;;51.42;30.08;;;;;;;14.92;71.44;99890.23;2211552;80;21303;-70
2021/03/31 07:18:32;;;;;;;57.05;34.90;;;;;;;15.15;70.71;99886.99;2190229;80;21176;-70
2021/03/31 07:21:34;;;;;;;58.65;35.95;;;;;;;15.42;70.27;99886.19;2205397;80;21300;-71
2021/03/31 07:24:36;;;;;;;56.10;33.33;;;;;;;15.70;69.58;99888.35;2198291;80;21316;-70
2021/03/31 07:27:38;;;;;;;52.80;32.93;;;;;;;15.90;70.03;99891.05;2191962;80;21307;-71
2021/03/31 07:30:40;;;;;;;49.40;31.20;;;;;;;16.21;69.21;99893.81;2202418;80;21312;-72
2021/03/31 07:33:42;;;;;;;53.30;33.33;;;;;;;16.43;68.10;99894.55;2186776;80;21186;-71
2021/03/31 07:36:45;;;;;;;51.98;31.70;;;;;;;16.57;67.75;99894.06;2192270;80;21287;-70
2021/03/31 07:39:47;;;;;;;63.60;35.35;;;;;;;16.75;68.37;99895.44;2193889;80;21371;-71
2021/03/31 07:42:49;;;;;;;53.87;32.78;;;;;;;16.75;67.66;99885.30;2196284;80;21288;-70
2021/03/31 07:45:51;;;;;;;58.28;33.78;;;;;;;16.88;68.14;99883.53;2207735;80;21724;-70
2021/03/31 07:48:53;;;;;;;53.40;31.93;;;;;;;17.16;67.96;99884.20;2195922;80;21728;-71
2021/03/31 07:51:55;;;;;;;57.62;34.00;;;;;;;17.38;67.18;99885.31;2197784;80;21336;-71
2021/03/31 07:54:57;;;;;;;59.05;34.15;;;;;;;17.56;66.85;99885.30;2197298;80;21569;-71
2021/03/31 07:57:59;;;;;;;56.48;33.85;;;;;;;17.75;66.63;99877.31;2183831;80;21295;-71
2021/03/31 08:01:02;;;;;;;57.20;30.77;;;;;;;17.97;66.35;99874.78;2200366;80;21299;-71
2021/03/31 08:04:04;;;;;;;51.55;32.17;;;;;;;18.19;65.58;99873.16;2202611;80;21593;-70
2021/03/31 08:07:06;;;;;;;46.33;26.02;;;;;;;18.46;65.94;99868.86;2196948;80;21560;-71
2021/03/31 08:10:08;;;;;;;;;;;;;;;18.78;64.88;99863.33;2203045;80;21303;-71
2021/03/31 08:13:10;;;;;;;44.75;24.27;;;;;;;19.02;64.23;99866.73;2182295;80;20236;-71
2021/03/31 08:16:13;;;;;;;42.73;23.32;;;;;;;19.20;62.88;99866.21;2212701;80;21648;-71
2021/03/31 08:19:15;;;;;;;42.33;22.25;;;;;;;19.20;61.60;99871.53;2195898;79;21292;-72
2021/03/31 08:22:17;;;;;;;39.03;20.65;;;;;;;19.34;61.92;99867.77;2198137;80;21284;-69
2021/03/31 08:25:20;;;;;;;;;;;;;;;19.30;57.19;99867.66;2190305;80;21288;-71
2021/03/31 08:28:22;;;;;;;41.37;22.02;;;;;;;19.09;57.96;99865.73;2206790;80;20226;-71
2021/03/31 08:31:24;;;;;;;40.00;21.40;;;;;;;19.20;59.68;99864.39;2211590;80;21289;-68
2021/03/31 08:34:27;;;;;;;40.25;21.60;;;;;;;19.15;60.40;99864.39;2184710;80;21284;-71
2021/03/31 08:37:29;;;;;;;39.10;21.35;;;;;;;19.36;59.99;99862.66;2157196;80;21267;-68
2021/03/31 08:40:32;;;;;;;35.25;18.48;;;;;;;19.63;57.22;99854.72;2159972;80;21629;-71
2021/03/31 08:43:34;;;;;;;35.78;18.48;;;;;;;19.45;55.82;99857.56;2189028;80;21961;-70
2021/03/31 08:46:36;;;;;;;;;;;;;;;19.41;56.75;99855.66;2193219;80;21283;-70
2021/03/31 08:49:39;;;;;;;39.70;19.50;;;;;;;19.46;56.85;99850.78;2204608;78;20297;-70
2021/03/31 08:52:40;;;;;;;35.30;16.93;;;;;;;19.82;56.66;99847.91;2200548;80;21323;-69
2021/03/31 08:55:42;;;;;;;36.17;17.90;;;;;;;19.70;54.10;99852.41;2199984;80;21296;-71
2021/03/31 08:58:44;;;;;;;;;;;;;;;19.65;56.41;99849.27;2190670;80;21307;-70
2021/03/31 09:01:46;;;;;;;35.92;18.67;;;;;;;19.87;57.34;99850.55;2179910;80;20225;-69
2021/03/31 09:04:48;;;;;;;33.78;17.37;;;;;;;20.37;57.07;99848.56;2188955;80;21300;-69
2021/03/31 09:07:51;;;;;;;33.80;17.20;;;;;;;20.66;55.04;99847.86;2189084;80;21225;-71
2021/03/31 09:10:53;;;;;;;;;;;;;;;20.67;54.90;99853.56;2206879;80;21328;-69
2021/03/31 09:13:54;;;;;;;38.02;17.00;;;;;;;20.54;51.78;99847.59;2202090;80;20275;-71
2021/03/31 09:16:57;;;;;;;38.33;17.10;;;;;;;20.28;52.80;99842.68;2200996;80;21142;-71
2021/03/31 09:20:00;;;;;;;34.63;17.05;;;;;;;20.07;54.43;99825.41;2198126;80;21751;-70
2021/03/31 09:23:02;;;;;;;32.00;15.83;;;;;;;20.39;55.25;99831.12;2189381;80;21764;-70
2021/03/31 09:26:04;;;;;;;;;;;;;;;20.75;54.36;99827.09;2187721;80;21732;-71
2021/03/31 09:29:06;;;;;;;30.92;15.05;;;;;;;20.92;50.99;99830.94;2195402;80;20511;-70
2021/03/31 09:32:09;;;;;;;;;;;;;;;20.59;51.06;99830.22;2194799;80;21304;-71
2021/03/31 09:35:11;;;;;;;31.35;14.03;;;;;;;20.62;52.27;99826.45;2195279;80;20402;-71
2021/03/31 09:38:13;;;;;;;;;;;;;;;20.78;52.66;99816.65;2207152;79;21146;-71
2021/03/31 09:41:15;;;;;;;29.82;13.00;;;;;;;20.98;51.71;99820.72;2184799;80;20225;-71
2021/03/31 09:44:17;;;;;;;;;;;;;;;20.99;50.05;99822.38;2195034;80;21280;-71
2021/03/31 09:47:19;;;;;;;27.70;11.45;;;;;;;21.13;51.30;99821.16;2193524;79;20410;-69
2021/03/31 09:50:21;;;;;;;28.35;11.33;;;;;;;21.16;50.90;99818.22;2196434;80;21272;-70
2021/03/31 09:53:23;;;;;;;;;;;;;;;21.11;48.97;99819.47;2194977;80;21295;-70
2021/03/31 09:56:25;;;;;;;27.37;12.50;;;;;;;21.01;49.75;99814.61;2170982;80;20250;-70
2021/03/31 09:59:28;;;;;;;28.92;12.85;;;;;;;21.16;51.16;99803.55;2192970;80;21645;-71
2021/03/31 10:02:31;;;;;;;30.15;12.50;;;;;;;21.67;51.98;99798.98;2193031;80;21743;-69
2021/03/31 10:05:33;;;;;;;26.27;12.00;;;;;;;22.06;48.59;99791.74;2204140;80;21727;-70
2021/03/31 10:08:39;;;;;;;26.82;11.83;;;;;;;22.07;50.49;99787.27;2203962;80;21348;-70
2021/03/31 10:11:39;;;;;;;28.50;12.03;;;;;;;22.35;49.85;99786.84;2203683;79;21253;-72
2021/03/31 10:14:41;;;;;;;27.20;12.47;;;;;;;22.63;49.79;99786.38;2181688;80;21308;-69
2021/03/31 10:17:43;;;;;;;26.73;11.75;;;;;;;22.98;49.61;99782.09;2180797;78;21272;-70
2021/03/31 10:20:46;;;;;;;28.12;12.03;;;;;;;23.44;49.53;99772.70;2185303;80;21625;-71
2021/03/31 10:23:49;;;;;;;27.30;10.32;;;;;;;23.83;48.62;99768.83;2198878;80;21308;-70
2021/03/31 10:26:54;;;;;;;24.37;9.65;;;;;;;24.05;46.07;99766.19;2181337;80;21320;-72
2021/03/31 10:29:55;;;;;;;23.57;9.53;;;;;;;23.79;44.77;99759.42;2198418;80;21787;-71
2021/03/31 10:32:57;;;;;;;25.17;8.75;;;;;;;23.36;45.23;99761.95;2197148;80;21321;-72
2021/03/31 10:36:00;;;;;;;25.95;9.18;;;;;;;22.92;44.78;99753.28;2195654;80;21288;-71
2021/03/31 10:39:28;;;;;;;21.70;8.43;;;;;;;23.16;46.34;99751.39;2183996;80;21748;-72
2021/03/31 10:49:10;;;;;;;26.77;8.60;;;;;;;23.12;43.31;99737.97;2188154;79;21308;-66
2021/03/31 10:52:15;;;;;;;24.82;8.88;;;;;;;23.06;44.40;99731.00;2176651;80;21276;-68
2021/03/31 10:55:16;;;;;;;20.85;8.80;;;;;;;23.23;43.93;99732.89;2200223;80;21272;-67
2021/03/31 10:58:18;;;;;;;22.37;7.90;;;;;;;23.11;44.08;99735.44;2201114;80;21755;-69
2021/03/31 11:01:20;;;;;;;20.77;6.90;;;;;;;23.48;45.88;99730.42;2197496;80;21279;-68
2021/03/31 11:04:23;;;;;;;22.75;7.37;;;;;;;23.91;42.06;99722.56;2194335;80;21295;-68
2021/03/31 11:07:25;;;;;;;20.32;7.10;;;;;;;23.14;42.75;99723.95;2195087;80;21276;-66
2021/03/31 11:10:27;;;;;;;20.55;7.17;;;;;;;22.79;43.43;99721.55;2194074;80;21272;-69
2021/03/31 11:13:29;;;;;;;20.85;7.20;;;;;;;22.71;42.92;99717.94;2199358;80;21312;-65
2021/03/31 11:16:31;;;;;;;20.80;7.40;;;;;;;22.88;42.70;99712.28;2195988;79;21280;-65
2021/03/31 11:19:45;;;;;;;22.25;7.05;;;;;;;23.08;40.42;99715.14;2195444;80;21609;-67
2021/03/31 11:26:06;;;;;;;19.42;7.00;;;;;;;23.58;41.11;99708.41;2198079;79;21348;-69
2021/03/31 11:29:08;;;;;;;22.90;7.08;;;;;;;23.14;41.11;99695.86;2195867;80;22459;-65
2021/03/31 11:32:11;;;;;;;22.48;7.72;;;;;;;22.97;42.75;99693.97;2193179;79;21170;-69
2021/03/31 11:35:13;;;;;;;22.42;7.30;;;;;;;22.72;43.86;99693.73;2195646;80;21701;-68
2021/03/31 11:38:15;;;;;;;21.48;7.05;;;;;;;23.07;43.94;99684.53;2192570;80;21407;-68
2021/03/31 11:41:18;;;;;;;23.22;6.83;;;;;;;23.32;41.12;99680.28;2200411;80;21165;-69
2021/03/31 11:44:20;;;;;;;19.75;6.60;;;;;;;23.13;41.36;99678.59;2190296;80;21145;-68
2021/03/31 11:47:22;;;;;;;21.23;7.08;;;;;;;23.04;40.32;99680.33;2188787;80;21126;-69
2021/03/31 11:50:25;;;;;;;20.70;6.75;;;;;;;23.32;42.61;99670.41;2186984;80;21300;-68
2021/03/31 11:53:29;;;;;;;21.57;6.35;;;;;;;22.94;41.86;99667.05;2184924;81;21335;-69
2021/03/31 11:56:31;;;;;;;20.23;6.28;;;;;;;22.71;43.19;99659.13;2178481;80;21288;-68
2021/03/31 11:59:33;;;;;;;19.37;6.60;;;;;;;23.30;41.44;99657.69;2199742;80;21312;-66
2021/03/31 12:02:35;;;;;;;19.07;6.10;;;;;;;23.58;42.09;99653.52;2201103;80;21270;-65
2021/03/31 12:05:37;;;;;;;22.17;6.75;;;;;;;23.74;41.75;99648.77;2195887;80;21300;-69
2021/03/31 12:08:45;;;;;;;18.50;5.58;;;;;;;23.65;39.46;99651.06;2190228;80;21299;-69
2021/03/31 12:11:44;;;;;;;17.77;5.50;;;;;;;23.64;40.28;99644.84;2192011;79;21284;-65
2021/03/31 12:14:46;;;;;;;21.93;6.20;;;;;;;23.58;39.51;99647.34;2194927;80;21609;-68
2021/03/31 12:17:48;;;;;;;20.62;6.30;;;;;;;23.31;40.78;99629.91;2193603;80;21351;-68
2021/03/31 12:20:50;;;;;;;21.10;6.12;;;;;;;23.41;39.92;99627.14;2182395;80;21601;-67
2021/03/31 12:23:52;;;;;;;19.55;5.67;;;;;;;23.45;40.33;99623.16;2200590;80;21724;-68
2021/03/31 12:27:01;;;;;;;21.95;6.58;;;;;;;23.35;38.64;99633.13;2183831;80;21293;-69
2021/03/31 12:29:58;;;;;;;18.98;6.35;;;;;;;23.17;38.92;99627.31;2178980;80;21355;-70
2021/03/31 12:33:01;;;;;;;21.80;6.70;;;;;;;23.09;39.46;99616.51;2196352;80;21189;-69
2021/03/31 12:36:02;;;;;;;20.40;6.42;;;;;;;23.31;39.82;99613.84;2203424;80;21315;-69
2021/03/31 12:39:05;;;;;;;22.13;6.60;;;;;;;23.55;40.18;99605.65;2189219;80;21176;-68
2021/03/31 12:42:07;;;;;;;21.85;6.30;;;;;;;24.06;38.30;99609.76;2196077;80;21224;-69
2021/03/31 12:45:09;;;;;;;21.97;6.37;;;;;;;24.35;39.36;99594.63;2200896;80;21291;-68
2021/03/31 12:48:11;;;;;;;21.52;6.65;;;;;;;24.78;38.62;99588.33;2193631;78;21290;-69
2021/03/31 12:51:18;;;;;;;20.85;6.37;;;;;;;24.86;38.49;99587.83;2177120;80;21573;-68
2021/03/31 12:54:21;;;;;;;20.30;6.80;;;;;;;24.58;36.23;99584.58;2182525;80;21268;-69
2021/03/31 12:57:23;;;;;;;18.73;6.47;;;;;;;24.53;36.06;99582.41;2192475;80;21279;-70
2021/03/31 13:00:26;;;;;;;21.20;6.33;;;;;;;24.65;38.19;99568.23;2206422;80;21689;-69
2021/03/31 13:03:28;;;;;;;21.87;6.92;;;;;;;25.16;38.67;99557.29;2202128;80;21747;-69
2021/03/31 13:06:31;;;;;;;22.00;7.35;;;;;;;25.04;34.82;99562.66;2179510;80;21285;-68
2021/03/31 13:09:34;;;;;;;22.55;8.10;;;;;;;24.72;35.57;99564.35;2201911;80;21291;-68
2021/03/31 13:12:42;;;;;;;21.75;7.37;;;;;;;24.63;35.48;99554.13;2192622;80;21133;-70
2021/03/31 13:15:42;;;;;;;22.48;8.08;;;;;;;24.39;36.78;99548.20;2199407;80;21141;-69
2021/03/31 13:25:28;;;;;;;24.20;8.25;;;;;;;23.65;36.06;99547.97;2196552;79;21216;-73
2021/03/31 13:28:54;;;;;;;23.05;7.47;;;;;;;23.39;37.62;99538.63;2181911;80;21181;-72
2021/03/31 13:31:47;;;;;;;24.30;8.78;;;;;;;23.46;35.72;99536.98;2192055;80;21311;-65
2021/03/31 13:34:51;;;;;;;25.27;8.55;;;;;;;23.60;37.67;99538.23;2199007;80;21300;-65
2021/03/31 13:37:55;;;;;;;22.75;8.55;;;;;;;23.75;37.49;99533.95;2197344;80;21256;-70
2021/03/31 13:40:56;;;;;;;26.68;8.83;;;;;;;23.74;35.90;99529.59;2194724;80;21288;-68
2021/03/31 13:43:58;;;;;;;22.75;8.88;;;;;;;23.87;37.64;99517.94;2190700;80;21307;-69
2021/03/31 13:47:03;;;;;;;25.95;8.35;;;;;;;23.95;36.47;99514.95;2193324;79;21343;-69
2021/03/31 13:50:05;;;;;;;21.15;7.50;;;;;;;24.08;36.27;99512.66;2187787;80;21289;-69
2021/03/31 13:53:08;;;;;;;20.68;7.20;;;;;;;24.07;34.24;99518.18;2193168;80;21375;-68
2021/03/31 13:56:16;;;;;;;20.97;7.20;;;;;;;23.89;35.93;99508.40;2185609;79;21723;-67
2021/03/31 13:59:14;;;;;;;22.22;6.95;;;;;;;23.82;35.47;99501.98;2193765;80;21289;-68
2021/03/31 14:02:16;;;;;;;20.57;6.95;;;;;;;23.85;34.90;99508.38;2196970;78;21311;-69
2021/03/31 14:05:19;;;;;;;21.85;6.17;;;;;;;23.55;35.14;99502.58;2203119;79;21578;-68
2021/03/31 14:08:21;;;;;;;20.90;5.95;;;;;;;23.02;35.11;99497.75;2187023;80;21284;-70
2021/03/31 14:11:23;;;;;;;22.75;6.37;;;;;;;22.65;37.20;99495.64;2205368;80;21281;-68
2021/03/31 14:14:25;;;;;;;22.40;6.05;;;;;;;22.54;37.58;99496.39;2192995;80;21328;-68
2021/03/31 14:17:27;;;;;;;19.67;6.25;;;;;;;22.28;37.72;99485.97;2200979;79;21339;-68
2021/03/31 14:20:29;;;;;;;19.35;5.35;;;;;;;22.09;37.66;99488.77;2195996;79;21319;-70
2021/03/31 14:23:32;;;;;;;21.07;5.47;;;;;;;22.09;36.11;99487.44;2192692;80;21161;-68